Time;durP1;ratioP1;P1;durP2;ratioP2;P2;SDS_P1;SDS_P2;PMS_P1;PMS_P2;Temp;Humidity;BMP_temperature;BMP_pressure;BME280_temperature;BME280_humidity;BME280_pressure;Samples;Min_cycle;Max_cycle;Signal;HPM_P1;HPM_P2
2022/09/22 00:00:59;;;;;;;3.25;1.23;;;17.80;66.40;;;;;;10075431;29;20036;-66
2022/09/22 00:06:10;;;;;;;2.60;1.58;;;17.90;66.30;;;;;;10090782;29;20025;-64
2022/09/22 00:11:19;;;;;;;2.28;1.20;;;17.80;66.20;;;;;;10075338;29;20033;-62
2022/09/22 00:16:43;;;;;;;1.97;1.57;;;17.80;66.90;;;;;;10075098;29;20060;-64
2022/09/22 00:21:45;;;;;;;3.90;1.90;;;17.80;66.20;;;;;;10091144;29;20793;-65
2022/09/22 00:26:47;;;;;;;3.55;1.67;;;17.80;68.10;;;;;;10059370;29;20049;-64
2022/09/22 00:31:48;;;;;;;3.17;1.40;;;17.90;71.10;;;;;;10073279;29;20085;-65
2022/09/22 00:36:49;;;;;;;3.60;1.00;;;18.00;70.40;;;;;;10074045;29;20075;-64
2022/09/22 00:41:51;;;;;;;2.90;1.40;;;17.90;69.90;;;;;;10090787;29;20089;-67
2022/09/22 00:47:17;;;;;;;1.40;1.00;;;17.90;69.40;;;;;;10072981;29;20087;-64
2022/09/22 00:52:37;;;;;;;3.05;1.30;;;17.90;69.30;;;;;;10081041;29;20437;-65
2022/09/22 00:57:41;;;;;;;1.48;1.10;;;17.90;68.90;;;;;;10088847;29;20120;-66
2022/09/22 01:02:49;;;;;;;2.40;1.17;;;17.90;68.70;;;;;;10073537;29;20544;-66
2022/09/22 01:07:50;;;;;;;1.85;1.02;;;17.90;68.60;;;;;;10073208;29;20037;-64
2022/09/22 01:13:22;;;;;;;2.47;0.93;;;17.80;68.30;;;;;;10073338;29;20029;-65
2022/09/22 01:19:24;;;;;;;2.75;1.40;;;17.90;68.20;;;;;;10064974;29;20046;-64
2022/09/22 01:25:02;;;;;;;1.85;1.30;;;17.80;68.00;;;;;;9954152;29;20030;-65
2022/09/22 01:30:14;;;;;;;1.42;1.05;;;17.80;68.00;;;;;;10076342;29;20112;-65
2022/09/22 01:35:28;;;;;;;2.30;1.13;;;17.80;67.80;;;;;;10088696;29;20417;-66
2022/09/22 01:40:56;;;;;;;1.25;0.90;;;17.80;67.70;;;;;;10071800;29;20031;-65
2022/09/22 01:46:01;;;;;;;1.85;1.20;;;17.80;67.50;;;;;;10071588;29;20501;-67
2022/09/22 01:51:15;;;;;;;2.15;1.08;;;17.80;67.50;;;;;;10071589;29;20032;-66
2022/09/22 01:56:18;;;;;;;1.85;1.42;;;17.80;67.30;;;;;;10071891;29;20061;-66
2022/09/22 02:01:37;;;;;;;2.95;1.23;;;17.80;67.20;;;;;;10071637;29;20034;-64
2022/09/22 02:06:54;;;;;;;1.58;0.93;;;17.80;67.10;;;;;;10086213;29;20061;-66
2022/09/22 02:11:57;;;;;;;2.88;1.60;;;17.80;66.90;;;;;;10071377;29;20029;-64
2022/09/22 02:16:59;;;;;;;3.00;1.20;;;17.70;66.80;;;;;;10072341;29;20048;-65
2022/09/22 02:21:59;;;;;;;2.33;1.17;;;17.70;66.70;;;;;;10094401;29;20041;-65
2022/09/22 02:27:10;;;;;;;2.53;1.35;;;17.70;66.70;;;;;;10070566;29;20060;-65
2022/09/22 02:32:15;;;;;;;2.40;1.10;;;17.70;66.70;;;;;;10055213;29;20037;-63
2022/09/22 02:37:53;;;;;;;1.70;1.05;;;17.70;66.50;;;;;;10086748;29;20715;-65
2022/09/22 02:43:25;;;;;;;2.15;1.38;;;17.70;66.40;;;;;;10062062;29;20029;-63
2022/09/22 02:48:31;;;;;;;1.58;1.05;;;17.70;66.30;;;;;;10086432;29;20528;-64
2022/09/22 02:53:34;;;;;;;1.58;1.00;;;17.70;66.30;;;;;;10068873;29;20037;-65
2022/09/22 02:58:35;;;;;;;1.80;0.95;;;17.60;66.10;;;;;;10068237;29;20524;-67
2022/09/22 03:03:36;;;;;;;2.20;1.10;;;17.60;66.10;;;;;;10069532;29;20069;-64
2022/09/22 03:08:36;;;;;;;1.50;1.02;;;17.60;66.10;;;;;;10072258;29;20119;-66
2022/09/22 03:13:37;;;;;;;1.50;0.73;;;17.60;66.10;;;;;;10076629;29;20244;-62
2022/09/22 03:18:38;;;;;;;1.55;1.02;;;17.60;66.00;;;;;;10065072;29;20680;-65
2022/09/22 03:23:38;;;;;;;1.92;1.35;;;17.60;66.00;;;;;;10092721;29;20080;-64
2022/09/22 03:28:39;;;;;;;1.65;1.10;;;17.60;65.90;;;;;;10077162;29;20374;-65
2022/09/22 03:33:39;;;;;;;1.10;0.85;;;17.60;65.90;;;;;;10075495;29;20108;-66
2022/09/22 03:38:40;;;;;;;1.80;0.75;;;17.60;65.80;;;;;;10076356;29;20060;-64
2022/09/22 03:43:41;;;;;;;1.70;0.90;;;17.60;65.90;;;;;;10088299;29;20467;-65
2022/09/22 03:48:41;;;;;;;1.52;0.80;;;17.60;65.70;;;;;;10048936;29;20124;-65
2022/09/22 03:53:42;;;;;;;1.63;0.93;;;17.50;65.60;;;;;;10075002;29;20397;-65
2022/09/22 03:58:43;;;;;;;1.67;0.95;;;17.50;65.60;;;;;;10091966;29;20105;-64
2022/09/22 04:03:44;;;;;;;1.40;0.90;;;17.50;65.60;;;;;;10074529;29;20049;-66
2022/09/22 04:08:44;;;;;;;1.17;0.80;;;17.50;65.60;;;;;;10070437;29;20124;-65
2022/09/22 04:13:45;;;;;;;1.75;0.90;;;17.50;65.50;;;;;;10070600;29;20181;-64
2022/09/22 04:18:46;;;;;;;3.92;0.90;;;17.60;65.90;;;;;;10084837;29;20067;-68
2022/09/22 04:23:46;;;;;;;3.47;1.27;;;17.60;65.70;;;;;;10069132;29;20040;-64
2022/09/22 04:28:47;;;;;;;2.10;1.00;;;17.60;65.80;;;;;;10078184;29;20292;-64
2022/09/22 04:33:48;;;;;;;2.22;0.80;;;17.50;65.90;;;;;;10065051;29;20037;-65
2022/09/22 04:38:48;;;;;;;2.05;1.02;;;17.50;65.40;;;;;;10079700;29;20513;-65
2022/09/22 04:43:49;;;;;;;1.48;0.80;;;17.50;65.50;;;;;;10062445;29;20120;-65
2022/09/22 04:48:49;;;;;;;1.98;0.82;;;17.50;65.20;;;;;;10074667;29;20124;-66
2022/09/22 04:53:50;;;;;;;1.40;0.95;;;17.50;65.10;;;;;;10058558;29;20505;-67
2022/09/22 04:58:51;;;;;;;4.70;1.15;;;17.50;65.00;;;;;;10089921;29;20124;-64
2022/09/22 05:03:52;;;;;;;5.00;1.00;;;17.40;64.60;;;;;;10074311;29;20460;-67
2022/09/22 05:08:54;;;;;;;7.30;1.42;;;17.50;65.10;;;;;;10089869;29;20110;-65
2022/09/22 05:13:55;;;;;;;4.00;1.15;;;17.50;65.50;;;;;;10072636;29;20059;-67
2022/09/22 05:18:57;;;;;;;5.20;1.00;;;17.50;65.70;;;;;;10059388;29;20117;-64
2022/09/22 05:23:57;;;;;;;9.13;1.20;;;17.60;65.80;;;;;;10073925;29;20104;-65
2022/09/22 05:28:58;;;;;;;12.70;2.33;;;17.60;65.90;;;;;;10087557;29;20033;-64
2022/09/22 05:33:58;;;;;;;8.25;1.65;;;17.60;65.90;;;;;;10088642;29;20124;-66
2022/09/22 05:38:59;;;;;;;10.73;1.95;;;17.50;65.80;;;;;;10088649;29;20128;-63
2022/09/22 05:44:00;;;;;;;17.83;3.58;;;17.50;65.80;;;;;;10071624;29;20057;-58
2022/09/22 05:49:01;;;;;;;24.48;5.07;;;17.50;65.90;;;;;;10088493;29;20060;-65
2022/09/22 05:54:01;;;;;;;9.40;2.90;;;17.50;65.80;;;;;;10088329;29;20141;-65
2022/09/22 05:59:02;;;;;;;37.17;5.07;;;17.50;65.70;;;;;;10049327;29;20077;-65
2022/09/22 06:04:03;;;;;;;12.10;3.50;;;17.50;65.90;;;;;;10071522;29;20738;-65
2022/09/22 06:09:03;;;;;;;11.02;2.95;;;17.40;66.00;;;;;;10086824;29;20061;-65
2022/09/22 06:14:04;;;;;;;15.82;3.60;;;17.40;65.90;;;;;;10087621;29;20053;-64
2022/09/22 06:19:05;;;;;;;24.77;4.38;;;17.30;66.10;;;;;;10102638;29;20124;-62
2022/09/22 06:24:05;;;;;;;14.38;2.85;;;17.40;65.50;;;;;;10071068;29;20132;-66
2022/09/22 06:29:07;;;;;;;11.00;3.03;;;17.40;65.20;;;;;;10070534;29;20732;-65
2022/09/22 06:34:08;;;;;;;8.93;2.42;;;17.40;65.20;;;;;;10070503;29;20037;-69
2022/09/22 06:39:10;;;;;;;11.02;2.63;;;17.30;65.20;;;;;;10062500;29;20472;-62
2022/09/22 06:44:13;;;;;;;9.70;2.33;;;17.30;65.40;;;;;;10073245;29;20029;-64
2022/09/22 06:49:13;;;;;;;7.50;1.90;;;17.30;65.20;;;;;;10076951;29;20122;-64
2022/09/22 06:54:14;;;;;;;8.77;1.95;;;17.30;65.00;;;;;;10056785;29;20117;-66
2022/09/22 06:59:15;;;;;;;7.45;2.28;;;17.30;65.00;;;;;;10074649;29;20068;-66
2022/09/22 07:04:16;;;;;;;9.02;2.85;;;17.30;64.90;;;;;;10074412;29;20452;-61
2022/09/22 07:09:17;;;;;;;5.32;1.98;;;17.30;64.80;;;;;;10074285;29;20144;-66
2022/09/22 07:14:21;;;;;;;7.68;1.90;;;17.30;64.80;;;;;;10087642;29;20497;-64
2022/09/22 07:19:21;;;;;;;7.80;2.40;;;17.30;64.90;;;;;;10066392;29;20121;-64
2022/09/22 07:24:22;;;;;;;5.93;1.80;;;17.30;64.90;;;;;;10086302;29;20043;-65
2022/09/22 07:29:23;;;;;;;5.15;2.03;;;17.20;64.80;;;;;;10073175;29;20108;-65
2022/09/22 07:34:25;;;;;;;7.93;2.60;;;17.20;65.00;;;;;;10073732;29;20072;-66
2022/09/22 07:39:25;;;;;;;7.05;1.60;;;17.20;65.00;;;;;;10073530;29;20068;-64
2022/09/22 07:49:45;;;;;;;7.87;2.70;;;17.20;65.10;;;;;;10076930;29;20041;-63
2022/09/22 07:54:45;;;;;;;6.70;1.80;;;17.20;65.40;;;;;;10072672;29;20073;-65
2022/09/22 07:59:46;;;;;;;6.32;1.70;;;17.10;65.60;;;;;;10073400;29;20112;-65
2022/09/22 08:04:47;;;;;;;5.72;2.17;;;17.20;65.80;;;;;;10072755;29;20128;-65
2022/09/22 08:09:47;;;;;;;8.27;1.80;;;17.20;65.90;;;;;;10072822;29;20063;-66
2022/09/22 08:14:48;;;;;;;6.68;2.85;;;17.20;66.00;;;;;;10072372;29;20572;-65
2022/09/22 08:19:49;;;;;;;6.47;1.80;;;17.20;66.10;;;;;;10082040;29;20178;-65
2022/09/22 08:24:50;;;;;;;6.05;1.95;;;17.20;66.10;;;;;;10072008;29;20623;-65
2022/09/22 08:29:51;;;;;;;2.92;1.10;;;17.20;66.10;;;;;;10073011;29;20069;-65
2022/09/22 08:34:56;;;;;;;4.75;1.30;;;17.20;66.10;;;;;;10088530;29;20064;-66
2022/09/22 08:39:57;;;;;;;3.47;1.55;;;17.20;66.10;;;;;;10072301;29;20112;-64
2022/09/22 08:45:03;;;;;;;3.38;1.38;;;17.30;66.20;;;;;;10071705;29;20036;-64
2022/09/22 08:56:10;;;;;;;2.78;1.13;;;17.30;66.20;;;;;;10078270;29;20049;-65
2022/09/22 09:01:34;;;;;;;2.45;1.10;;;17.30;66.20;;;;;;10070903;29;20044;-65
2022/09/22 09:07:03;;;;;;;3.03;1.35;;;17.40;66.20;;;;;;10071890;29;20390;-65
2022/09/22 09:12:32;;;;;;;3.42;1.10;;;17.40;66.20;;;;;;10071528;29;20446;-63
2022/09/22 09:17:37;;;;;;;3.78;1.15;;;17.40;66.20;;;;;;10092193;29;20132;-64
2022/09/22 09:22:54;;;;;;;3.40;1.25;;;17.40;66.20;;;;;;10087456;29;20272;-64
2022/09/22 09:28:00;;;;;;;2.30;1.25;;;17.50;66.20;;;;;;10070789;29;20076;-64
2022/09/22 09:33:04;;;;;;;3.92;1.08;;;17.50;66.30;;;;;;10069236;29;20036;-63
2022/09/22 09:38:12;;;;;;;4.05;1.35;;;17.50;66.20;;;;;;10069894;29;20044;-65
2022/09/22 09:43:14;;;;;;;3.15;1.10;;;17.50;66.70;;;;;;10069591;29;20562;-65
2022/09/22 09:48:47;;;;;;;1.83;1.20;;;17.60;66.10;;;;;;10068671;29;20037;-65
2022/09/22 09:53:48;;;;;;;1.90;0.90;;;17.60;66.00;;;;;;10071357;29;20064;-65
2022/09/22 10:04:35;;;;;;;3.03;1.00;;;17.70;66.00;;;;;;10072348;29;20033;-65
2022/09/22 10:09:35;;;;;;;3.25;1.20;;;17.70;66.00;;;;;;10068708;29;20151;-64
2022/09/22 10:14:36;;;;;;;2.03;1.10;;;17.70;66.00;;;;;;10068352;29;20124;-64
2022/09/22 10:19:37;;;;;;;2.03;1.00;;;17.70;66.00;;;;;;10077866;29;20043;-61
2022/09/22 10:24:37;;;;;;;3.25;1.70;;;17.80;66.00;;;;;;10084688;29;20045;-62
2022/09/22 10:29:40;;;;;;;1.60;0.90;;;17.80;66.00;;;;;;10067944;29;20588;-64
2022/09/22 10:34:50;;;;;;;2.63;0.77;;;17.80;66.00;;;;;;10068021;29;20073;-64
2022/09/22 10:39:55;;;;;;;4.32;1.42;;;17.80;65.90;;;;;;10067648;29;20025;-64
2022/09/22 10:45:18;;;;;;;1.70;0.90;;;17.90;66.00;;;;;;10067884;29;20033;-65
2022/09/22 10:50:26;;;;;;;4.28;0.80;;;17.90;66.00;;;;;;10067776;29;20106;-64
2022/09/22 10:55:28;;;;;;;1.50;0.88;;;17.90;66.00;;;;;;10084013;29;20660;-63
2022/09/22 11:00:40;;;;;;;1.77;0.82;;;17.90;66.00;;;;;;10067514;29;20044;-65
2022/09/22 11:12:30;;;;;;;1.80;1.00;;;17.90;65.90;;;;;;10084691;29;20029;-64
2022/09/22 11:18:11;;;;;;;2.75;0.90;;;18.00;66.00;;;;;;10036522;29;20075;-62
2022/09/22 11:23:53;;;;;;;1.65;0.88;;;18.00;65.90;;;;;;10072653;29;20033;-64
2022/09/22 11:29:31;;;;;;;1.35;0.60;;;18.00;65.90;;;;;;10072094;29;20048;-61
2022/09/22 11:34:51;;;;;;;1.23;0.85;;;18.00;65.80;;;;;;10089185;29;20507;-64
2022/09/22 11:40:24;;;;;;;2.55;1.17;;;18.00;65.90;;;;;;10074994;29;20048;-65
2022/09/22 11:46:20;;;;;;;2.42;0.95;;;18.00;65.90;;;;;;10090901;29;20041;-65
2022/09/22 11:52:02;;;;;;;0.93;0.60;;;18.10;65.90;;;;;;10088906;29;20033;-65
2022/09/22 11:57:08;;;;;;;1.70;0.90;;;18.10;65.90;;;;;;10072831;29;20413;-65
2022/09/22 12:02:25;;;;;;;1.80;0.82;;;18.10;65.90;;;;;;10073176;29;20048;-66
2022/09/22 12:07:58;;;;;;;3.38;1.20;;;18.10;65.90;;;;;;10072935;29;20441;-64
2022/09/22 12:13:03;;;;;;;0.98;0.70;;;18.10;66.50;;;;;;10084785;29;20041;-65
2022/09/22 12:18:39;;;;;;;1.77;0.98;;;18.10;66.00;;;;;;10083217;29;20037;-65
2022/09/22 12:23:47;;;;;;;1.40;0.70;;;18.10;65.90;;;;;;10080450;29;20043;-64
2022/09/22 12:28:48;;;;;;;2.25;1.05;;;18.00;66.00;;;;;;10057060;29;20036;-63
2022/09/22 12:33:55;;;;;;;1.83;0.88;;;18.00;66.10;;;;;;10088967;29;20029;-64
2022/09/22 12:39:30;;;;;;;1.10;0.70;;;18.00;66.00;;;;;;10071718;29;20029;-64
2022/09/22 12:44:48;;;;;;;2.00;0.70;;;18.10;66.00;;;;;;10041417;29;20112;-65
2022/09/22 12:50:12;;;;;;;1.48;0.70;;;18.00;66.10;;;;;;10086694;29;20179;-64
2022/09/22 12:55:20;;;;;;;1.20;0.50;;;18.00;66.00;;;;;;10060883;29;20117;-65
2022/09/22 13:00:31;;;;;;;1.60;0.50;;;18.00;66.20;;;;;;10086458;29;20509;-62
2022/09/22 13:05:34;;;;;;;1.58;0.70;;;18.00;66.30;;;;;;10070800;29;20033;-64
2022/09/22 13:10:35;;;;;;;1.73;0.73;;;18.00;66.20;;;;;;10071089;29;20037;-63
2022/09/22 13:15:44;;;;;;;1.23;0.70;;;18.00;66.30;;;;;;10085780;29;20478;-64
2022/09/22 13:20:45;;;;;;;;;;;18.00;66.40;;;;;;10079795;29;20045;-64
2022/09/22 13:25:46;;;;;;;1.45;0.80;;;17.90;66.40;;;;;;10069789;29;19908;-62
2022/09/22 13:31:15;;;;;;;1.70;0.63;;;17.90;66.40;;;;;;10069886;29;20104;-64
2022/09/22 13:36:22;;;;;;;0.90;0.52;;;18.00;66.40;;;;;;10075277;29;20132;-63
2022/09/22 13:41:26;;;;;;;1.75;1.08;;;18.00;66.40;;;;;;10054270;29;20025;-63
2022/09/22 13:46:46;;;;;;;1.25;0.70;;;18.00;66.40;;;;;;10069317;29;20589;-65
2022/09/22 13:51:57;;;;;;;1.70;0.70;;;18.00;66.30;;;;;;10085718;29;20044;-64
2022/09/22 13:56:59;;;;;;;2.15;0.93;;;18.00;66.40;;;;;;10069219;29;20057;-64
2022/09/22 14:02:07;;;;;;;1.48;1.00;;;18.00;66.40;;;;;;10071921;29;20037;-64
2022/09/22 14:07:10;;;;;;;1.30;0.65;;;18.00;66.40;;;;;;10084527;29;20033;-64
2022/09/22 14:12:11;;;;;;;2.45;0.70;;;17.90;66.40;;;;;;10068326;29;20064;-64
2022/09/22 14:17:18;;;;;;;2.15;0.63;;;17.90;66.40;;;;;;10071828;29;20025;-64
2022/09/22 14:22:22;;;;;;;0.75;0.60;;;17.90;66.50;;;;;;10089711;29;20116;-64
2022/09/22 14:27:31;;;;;;;1.30;0.80;;;17.90;66.60;;;;;;10068466;29;20033;-65
2022/09/22 14:32:43;;;;;;;1.00;0.50;;;17.90;66.60;;;;;;10068662;29;20740;-65
2022/09/22 14:37:47;;;;;;;1.73;0.70;;;17.80;66.60;;;;;;10043152;29;20521;-63
2022/09/22 14:43:08;;;;;;;1.40;0.52;;;17.80;66.60;;;;;;10068709;29;20113;-64
2022/09/22 14:48:12;;;;;;;0.88;0.60;;;17.80;66.60;;;;;;10067994;29;20433;-64
2022/09/22 14:53:20;;;;;;;0.88;0.52;;;17.80;66.60;;;;;;10084507;29;20529;-64
2022/09/22 14:58:25;;;;;;;1.33;0.57;;;17.80;66.60;;;;;;10067447;29;20143;-65
2022/09/22 15:03:28;;;;;;;1.08;0.65;;;17.80;66.70;;;;;;10068539;29;20057;-64
2022/09/22 15:08:30;;;;;;;0.80;0.52;;;17.80;66.70;;;;;;10059683;29;20394;-63
2022/09/22 15:13:44;;;;;;;1.17;0.50;;;17.80;67.20;;;;;;10091582;29;20097;-62
2022/09/22 15:18:46;;;;;;;1.00;0.60;;;17.80;66.60;;;;;;10101341;29;20370;-63
2022/09/22 15:23:47;;;;;;;0.75;0.50;;;17.70;66.60;;;;;;10073655;29;20033;-64
2022/09/22 15:28:50;;;;;;;0.95;0.47;;;17.80;66.70;;;;;;10091194;29;20490;-64
2022/09/22 15:33:52;;;;;;;0.88;0.63;;;17.70;66.60;;;;;;10090950;29;20936;-65
2022/09/22 15:38:58;;;;;;;1.35;0.68;;;17.70;66.60;;;;;;10073830;29;20385;-63
2022/09/22 15:43:58;;;;;;;1.13;0.50;;;17.80;66.70;;;;;;10073936;29;20033;-64
2022/09/22 15:49:09;;;;;;;1.23;0.50;;;17.70;66.70;;;;;;10073424;29;20060;-64
2022/09/22 15:54:25;;;;;;;1.85;0.82;;;17.70;66.80;;;;;;10074377;29;20033;-64
2022/09/22 15:59:31;;;;;;;0.90;0.52;;;17.70;66.70;;;;;;10072668;29;20033;-62
2022/09/22 16:04:32;;;;;;;8.15;1.50;;;17.70;66.70;;;;;;10060643;29;20037;-64
2022/09/22 16:09:34;;;;;;;13.80;3.05;;;17.70;66.50;;;;;;10075579;29;20040;-62
2022/09/22 16:14:35;;;;;;;22.58;3.95;;;17.80;67.40;;;;;;10076035;29;20180;-61
2022/09/22 16:19:36;;;;;;;16.27;3.15;;;18.10;67.40;;;;;;10101468;29;20067;-63
2022/09/22 16:24:36;;;;;;;26.15;4.50;;;18.10;67.60;;;;;;10074889;29;20039;-61
2022/09/22 16:29:37;;;;;;;34.47;5.97;;;18.10;67.70;;;;;;10074549;29;20144;-64
2022/09/22 16:34:38;;;;;;;22.10;3.70;;;18.10;68.00;;;;;;10078883;29;20089;-66
2022/09/22 16:39:38;;;;;;;31.00;6.32;;;18.10;68.20;;;;;;10054288;29;20057;-62
2022/09/22 16:44:41;;;;;;;42.83;9.02;;;18.10;67.70;;;;;;10073396;29;20060;-63
2022/09/22 16:49:41;;;;;;;51.30;10.50;;;18.00;67.90;;;;;;10088971;29;20033;-61
2022/09/22 16:54:42;;;;;;;59.05;10.13;;;17.90;68.20;;;;;;10086409;29;20132;-65
2022/09/22 16:59:44;;;;;;;43.92;7.03;;;18.00;68.50;;;;;;10072249;29;20104;-63
2022/09/22 17:04:45;;;;;;;37.92;7.55;;;18.20;68.70;;;;;;10089740;29;20120;-63
2022/09/22 17:09:46;;;;;;;28.45;6.90;;;18.30;67.80;;;;;;10088209;29;20384;-62
2022/09/22 17:14:47;;;;;;;23.67;7.38;;;18.40;67.50;;;;;;10071989;29;20041;-63
2022/09/22 17:19:48;;;;;;;29.02;5.43;;;18.40;67.50;;;;;;10065251;29;20060;-63
2022/09/22 17:24:49;;;;;;;32.17;5.82;;;18.40;67.70;;;;;;10089526;29;20532;-63
2022/09/22 17:29:49;;;;;;;28.60;6.35;;;18.40;67.60;;;;;;10076563;29;20481;-63
2022/09/22 17:34:51;;;;;;;26.20;6.68;;;18.50;67.40;;;;;;10063682;29;20127;-63
2022/09/22 17:39:52;;;;;;;25.13;5.93;;;18.40;67.40;;;;;;10089023;29;20033;-63
2022/09/22 17:44:52;;;;;;;28.42;7.68;;;18.40;67.40;;;;;;10087994;29;20073;-63
2022/09/22 17:55:21;;;;;;;21.00;5.30;;;18.50;67.30;;;;;;10088062;29;20056;-65
2022/09/22 18:00:23;;;;;;;24.77;6.57;;;18.50;67.50;;;;;;10073892;29;20040;-64
2022/09/22 18:05:26;;;;;;;18.80;5.22;;;18.50;67.70;;;;;;10086191;29;20120;-64
2022/09/22 18:10:32;;;;;;;15.15;4.65;;;18.60;68.20;;;;;;10085923;29;20464;-64
2022/09/22 18:15:35;;;;;;;22.85;6.30;;;18.60;67.90;;;;;;10069935;29;20068;-64
2022/09/22 18:20:36;;;;;;;16.70;7.18;;;18.70;67.80;;;;;;10092754;29;20033;-64
2022/09/22 18:25:36;;;;;;;30.55;8.77;;;18.70;69.20;;;;;;10070040;29;20065;-64
2022/09/22 18:30:39;;;;;;;19.10;7.43;;;18.70;69.00;;;;;;10069986;29;20100;-63
2022/09/22 18:35:39;;;;;;;29.08;11.55;;;18.70;69.90;;;;;;10055138;29;20045;-65
2022/09/22 18:40:40;;;;;;;18.98;8.90;;;18.60;70.40;;;;;;10081360;29;20072;-63
2022/09/22 18:45:42;;;;;;;18.63;7.75;;;18.60;72.20;;;;;;10095074;29;20080;-62
2022/09/22 18:50:44;;;;;;;20.77;8.18;;;18.60;71.00;;;;;;10076891;29;20039;-61
2022/09/22 18:55:47;;;;;;;15.38;7.25;;;18.50;70.50;;;;;;10077644;29;20443;-63
2022/09/22 19:00:50;;;;;;;16.60;7.10;;;18.40;70.40;;;;;;10089197;29;20068;-63
2022/09/22 19:05:50;;;;;;;18.40;7.28;;;18.40;70.20;;;;;;10065692;29;20052;-63
2022/09/22 19:10:52;;;;;;;19.52;7.03;;;18.30;70.20;;;;;;10092113;29;20083;-63
2022/09/22 19:15:53;;;;;;;16.80;6.07;;;18.30;70.00;;;;;;10075752;29;20077;-63
2022/09/22 19:20:54;;;;;;;12.45;5.75;;;18.30;69.80;;;;;;10101291;29;20029;-63
2022/09/22 19:25:54;;;;;;;13.52;5.25;;;18.20;69.50;;;;;;10075681;29;20076;-63
2022/09/22 19:30:55;;;;;;;11.70;5.63;;;18.20;69.40;;;;;;10076224;29;20044;-64
2022/09/22 19:35:56;;;;;;;10.20;5.68;;;18.20;69.30;;;;;;10091216;29;20160;-63
2022/09/22 19:40:57;;;;;;;12.82;4.60;;;18.20;69.10;;;;;;10058266;29;20743;-63
2022/09/22 19:45:58;;;;;;;12.25;4.72;;;18.20;69.00;;;;;;10088801;29;20028;-63
2022/09/22 19:51:02;;;;;;;11.70;5.03;;;18.20;68.90;;;;;;10074713;29;20064;-62
2022/09/22 19:56:04;;;;;;;10.02;4.53;;;18.20;68.80;;;;;;10090548;29;20168;-63
2022/09/22 20:01:07;;;;;;;13.38;4.47;;;18.10;68.70;;;;;;10091633;29;20033;-63
2022/09/22 20:06:08;;;;;;;8.68;3.90;;;18.20;68.60;;;;;;10074378;29;20033;-63
2022/09/22 20:11:09;;;;;;;9.93;4.35;;;18.10;68.40;;;;;;10074921;29;20068;-63
2022/09/22 20:16:09;;;;;;;8.73;3.92;;;18.10;68.30;;;;;;10059036;29;20044;-63
2022/09/22 20:21:14;;;;;;;9.02;3.47;;;18.10;68.20;;;;;;10084081;29;20128;-63
2022/09/22 20:26:14;;;;;;;6.15;3.33;;;18.10;68.10;;;;;;10074304;29;20067;-62
2022/09/22 20:31:15;;;;;;;7.30;3.22;;;18.10;68.00;;;;;;10090438;29;20030;-63
2022/09/22 20:36:16;;;;;;;9.40;3.78;;;18.10;68.00;;;;;;10073796;29;20567;-63
2022/09/22 20:41:22;;;;;;;7.38;3.15;;;18.10;67.90;;;;;;10090050;29;20081;-63
2022/09/22 20:46:22;;;;;;;6.75;2.65;;;18.10;68.40;;;;;;10058568;29;20394;-63
2022/09/22 20:51:23;;;;;;;7.55;3.28;;;18.10;67.70;;;;;;10058366;29;20037;-62
2022/09/22 20:56:24;;;;;;;6.55;3.28;;;18.10;67.60;;;;;;10073901;29;20048;-62
2022/09/22 21:01:25;;;;;;;7.68;2.70;;;18.10;67.60;;;;;;10072105;29;20036;-63
2022/09/22 21:06:26;;;;;;;4.90;3.33;;;18.10;67.50;;;;;;10088588;29;20030;-63
2022/09/22 21:11:27;;;;;;;10.70;2.88;;;18.00;67.30;;;;;;10072914;29;20525;-62
2022/09/22 21:16:35;;;;;;;7.65;3.13;;;18.00;67.30;;;;;;10072675;29;20397;-63
2022/09/22 21:21:36;;;;;;;7.32;2.42;;;18.00;67.20;;;;;;10057353;29;20378;-63
2022/09/22 21:26:37;;;;;;;7.95;2.80;;;18.00;67.10;;;;;;10089249;29;20040;-63
2022/09/22 21:31:38;;;;;;;5.47;3.38;;;18.00;67.00;;;;;;10072010;29;20043;-63
2022/09/22 21:36:38;;;;;;;5.38;3.00;;;18.00;67.00;;;;;;10071358;29;20045;-63
2022/09/22 21:41:39;;;;;;;4.78;2.28;;;18.00;66.90;;;;;;10071663;29;20029;-63
2022/09/22 21:46:40;;;;;;;4.22;1.98;;;18.00;66.90;;;;;;10072041;29;20033;-63
2022/09/22 21:51:43;;;;;;;5.75;2.72;;;18.00;66.90;;;;;;10071727;29;20033;-63
2022/09/22 21:56:44;;;;;;;4.90;2.00;;;18.00;66.80;;;;;;10088008;29;20060;-63
2022/09/22 22:01:45;;;;;;;3.90;1.83;;;18.00;66.70;;;;;;10056067;29;20025;-63
2022/09/22 22:06:45;;;;;;;4.70;2.30;;;18.00;66.60;;;;;;10086478;29;20523;-62
2022/09/22 22:11:50;;;;;;;4.72;2.20;;;18.00;66.60;;;;;;10071062;29;20112;-62
2022/09/22 22:16:53;;;;;;;3.67;2.22;;;18.00;66.50;;;;;;10071797;29;20089;-63
2022/09/22 22:21:54;;;;;;;6.07;2.38;;;17.90;66.50;;;;;;10079967;29;20033;-63
2022/09/22 22:27:08;;;;;;;4.35;2.08;;;17.90;66.40;;;;;;10086716;29;20038;-62
2022/09/22 22:32:09;;;;;;;6.50;2.55;;;17.90;66.30;;;;;;10071121;29;20567;-62
2022/09/22 22:37:10;;;;;;;4.18;2.20;;;17.90;66.30;;;;;;10069778;29;20390;-62
2022/09/22 22:42:11;;;;;;;3.90;2.10;;;17.90;66.40;;;;;;10070750;29;20112;-64
2022/09/22 22:47:12;;;;;;;3.22;1.50;;;17.90;66.30;;;;;;10087206;29;20065;-64
2022/09/22 22:52:13;;;;;;;3.53;2.15;;;17.90;66.20;;;;;;10054893;29;20033;-63
2022/09/22 22:57:13;;;;;;;6.72;2.47;;;17.90;66.10;;;;;;10054557;29;20441;-63
2022/09/22 23:02:14;;;;;;;4.13;2.90;;;17.90;66.10;;;;;;10085674;29;20108;-62
2022/09/22 23:07:14;;;;;;;3.13;2.40;;;17.90;66.10;;;;;;10085532;29;20037;-63
2022/09/22 23:12:17;;;;;;;3.13;1.92;;;17.90;66.10;;;;;;10069994;29;20128;-63
2022/09/22 23:17:17;;;;;;;4.05;1.80;;;17.90;66.10;;;;;;10086697;29;20374;-63
2022/09/22 23:22:19;;;;;;;3.85;1.73;;;17.90;66.00;;;;;;10069905;29;20097;-63
2022/09/22 23:27:20;;;;;;;4.35;1.70;;;17.90;66.00;;;;;;10074182;29;20071;-63
2022/09/22 23:32:20;;;;;;;2.63;1.55;;;17.80;65.80;;;;;;10092209;29;20119;-63
2022/09/22 23:37:23;;;;;;;2.85;1.88;;;17.80;65.70;;;;;;10076621;29;20084;-64
2022/09/22 23:42:24;;;;;;;2.75;1.48;;;17.90;65.70;;;;;;10093308;29;20036;-64
2022/09/22 23:47:25;;;;;;;4.80;1.70;;;17.90;65.70;;;;;;10076233;29;20037;-63
2022/09/22 23:52:26;;;;;;;2.25;1.30;;;17.80;65.70;;;;;;10092493;29;20533;-64
2022/09/22 23:57:26;;;;;;;3.22;1.77;;;17.80;65.70;;;;;;10090566;29;20099;-63
